Time;durP1;ratioP1;P1;durP2;ratioP2;P2;SDS_P1;SDS_P2;PMS_P1;PMS_P2;Temp;Humidity;BMP_temperature;BMP_pressure;BME280_temperature;BME280_humidity;BME280_pressure;Samples;Min_cycle;Max_cycle;Signal;HPM_P1;HPM_P2
2021/03/30 00:01:27;;;;;;;;;;;27.40;90.30;;;;;;4964772;29;19906;-45
2021/03/30 00:03:55;;;;;;;;;;;27.40;90.40;;;;;;4946200;29;20110;-43
2021/03/30 00:06:21;;;;;;;;;;;27.30;90.40;;;;;;4948722;29;19906;-46
2021/03/30 00:08:59;;;;;;;;;;;27.30;90.40;;;;;;4964400;28;19907;-46
2021/03/30 00:11:47;;;;;;;;;;;27.30;90.20;;;;;;4954843;28;19910;-49
2021/03/30 00:14:14;;;;;;;;;;;27.30;90.30;;;;;;5022874;28;19913;-41
2021/03/30 00:16:40;;;;;;;;;;;27.30;90.40;;;;;;5026604;28;19927;-44
2021/03/30 00:19:07;;;;;;;;;;;27.30;90.40;;;;;;5048682;28;19911;-43
2021/03/30 00:21:33;;;;;;;;;;;27.30;90.50;;;;;;5064599;28;19905;-45
2021/03/30 00:24:00;;;;;;;;;;;27.20;90.50;;;;;;5063985;28;20274;-46
2021/03/30 00:26:34;;;;;;;;;;;27.30;90.60;;;;;;5064482;28;19933;-41
2021/03/30 00:29:08;;;;;;;;;;;27.20;90.60;;;;;;5062543;28;19916;-47
2021/03/30 00:31:39;;;;;;;;;;;27.30;90.60;;;;;;5062951;28;19946;-45
2021/03/30 00:34:10;;;;;;;;;;;27.30;90.80;;;;;;5063142;28;19912;-46
2021/03/30 00:36:56;;;;;;;;;;;27.20;90.90;;;;;;5042005;28;19925;-41
2021/03/30 00:39:24;;;;;;;;;;;27.20;90.90;;;;;;5042234;28;20272;-42
2021/03/30 00:42:11;;;;;;;;;;;27.20;90.90;;;;;;5042285;28;19913;-41
2021/03/30 00:44:37;;;;;;;;;;;27.20;90.90;;;;;;5042378;28;20212;-43
2021/03/30 00:47:28;;;;;;;;;;;27.20;90.90;;;;;;5042377;28;19913;-46
2021/03/30 00:49:55;;;;;;;;;;;27.20;90.90;;;;;;5002567;28;20112;-45
2021/03/30 00:55:25;;;;;;;;;;;27.20;91.00;;;;;;5002461;28;19948;-41
2021/03/30 00:57:53;;;;;;;;;;;27.20;91.10;;;;;;5002839;28;19940;-42
2021/03/30 01:00:20;;;;;;;;;;;27.20;91.10;;;;;;4996070;28;20138;-49
2021/03/30 01:02:47;;;;;;;;;;;27.20;91.30;;;;;;5002771;28;20101;-43
2021/03/30 01:05:35;;;;;;;;;;;27.20;91.30;;;;;;4989655;28;19906;-45
2021/03/30 01:08:19;;;;;;;;;;;27.20;91.30;;;;;;4928549;29;19965;-48
2021/03/30 01:11:05;;;;;;;;;;;27.20;91.30;;;;;;4944236;29;19914;-46
2021/03/30 01:13:31;;;;;;;;;;;27.20;91.30;;;;;;4928570;29;19973;-46
2021/03/30 01:16:28;;;;;;;;;;;27.20;91.30;;;;;;4948084;29;20106;-42
2021/03/30 01:19:14;;;;;;;;;;;27.20;91.30;;;;;;4947536;29;19915;-44
2021/03/30 01:22:24;;;;;;;;;;;27.20;91.30;;;;;;4948409;29;19906;-43
2021/03/30 01:25:01;;;;;;;;;;;27.20;91.30;;;;;;4946047;29;19965;-44
2021/03/30 01:27:46;;;;;;;;;;;27.10;91.30;;;;;;4971283;28;19910;-47
2021/03/30 01:30:17;;;;;;;;;;;27.10;91.30;;;;;;4985028;28;20019;-42
2021/03/30 01:32:48;;;;;;;;;;;27.10;91.40;;;;;;4986666;28;19945;-47
2021/03/30 01:35:17;;;;;;;;;;;27.10;91.50;;;;;;4935304;29;20185;-42
2021/03/30 01:37:56;;;;;;;;;;;27.10;91.60;;;;;;4947935;29;19926;-44
2021/03/30 01:40:26;;;;;;;;;;;27.10;91.60;;;;;;4972749;28;19993;-41
2021/03/30 01:42:53;;;;;;;;;;;27.10;91.80;;;;;;5005977;28;19910;-44
2021/03/30 01:45:28;;;;;;;;;;;27.00;91.50;;;;;;4989632;28;19933;-41
2021/03/30 01:47:59;;;;;;;;;;;27.10;91.50;;;;;;4942224;28;19989;-39
2021/03/30 01:50:47;;;;;;;;;;;27.00;91.40;;;;;;4985993;28;20098;-45
2021/03/30 01:53:35;;;;;;;;;;;27.00;91.30;;;;;;4984850;28;19947;-41
2021/03/30 01:56:01;;;;;;;;;;;27.00;91.30;;;;;;4985663;28;20083;-47
2021/03/30 01:58:52;;;;;;;;;;;27.00;91.40;;;;;;5022300;28;20000;-44
2021/03/30 02:01:31;;;;;;;;;;;27.00;91.40;;;;;;5044217;28;19909;-49
2021/03/30 02:04:20;;;;;;;;;;;27.00;91.50;;;;;;5042194;28;19915;-41
2021/03/30 02:06:49;;;;;;;;;;;27.00;91.50;;;;;;5044737;28;19948;-42
2021/03/30 02:09:20;;;;;;;;;;;27.00;91.40;;;;;;5044704;28;19964;-44
2021/03/30 02:14:26;;;;;;;;;;;26.90;91.50;;;;;;5044609;28;19923;-41
2021/03/30 02:16:56;;;;;;;;;;;26.90;91.40;;;;;;5043870;28;20120;-47
2021/03/30 02:19:33;;;;;;;;;;;26.90;91.30;;;;;;5044532;28;19905;-43
2021/03/30 02:22:19;;;;;;;;;;;26.90;91.30;;;;;;5044902;28;19909;-44
2021/03/30 02:24:57;;;;;;;;;;;27.00;91.30;;;;;;5016362;28;19991;-49
2021/03/30 02:27:25;;;;;;;;;;;26.90;91.30;;;;;;4970293;28;19940;-45
2021/03/30 02:29:56;;;;;;;;;;;26.90;91.80;;;;;;5015155;28;20192;-48
2021/03/30 02:32:24;;;;;;;;;;;26.90;92.30;;;;;;5008628;28;19909;-48
2021/03/30 02:35:10;;;;;;;;;;;26.90;92.50;;;;;;5004517;28;19928;-45
2021/03/30 02:37:39;;;;;;;;;;;27.00;92.70;;;;;;5004785;28;19918;-48
2021/03/30 02:40:14;;;;;;;;;;;26.90;92.50;;;;;;5016837;28;19997;-46
2021/03/30 02:43:03;;;;;;;;;;;26.90;92.20;;;;;;4991838;28;19917;-44
2021/03/30 02:45:33;;;;;;;;;;;26.90;91.90;;;;;;5009128;28;19940;-53
2021/03/30 02:48:05;;;;;;;;;;;26.90;91.30;;;;;;5024393;28;19925;-46
2021/03/30 02:50:31;;;;;;;;;;;26.90;91.00;;;;;;5024493;28;19905;-40
2021/03/30 02:53:01;;;;;;;;;;;26.90;90.80;;;;;;5008008;28;20013;-43
2021/03/30 02:55:41;;;;;;;;;;;26.90;90.70;;;;;;4991192;28;19960;-42
2021/03/30 02:58:11;;;;;;;;;;;26.90;90.60;;;;;;5024166;28;20209;-46
2021/03/30 03:00:44;;;;;;;;;;;26.90;90.40;;;;;;5023863;28;19905;-42
2021/03/30 03:03:31;;;;;;;;;;;26.90;90.30;;;;;;5024207;28;20216;-37
2021/03/30 03:06:01;;;;;;;;;;;26.90;90.40;;;;;;5024152;28;20008;-40
2021/03/30 03:08:31;;;;;;;;;;;26.80;90.40;;;;;;5023969;28;19965;-40
2021/03/30 03:11:03;;;;;;;;;;;26.80;90.50;;;;;;5024066;28;20232;-48
2021/03/30 03:13:42;;;;;;;;;;;26.80;90.30;;;;;;5007374;28;20017;-51
2021/03/30 03:16:11;;;;;;;;;;;26.80;90.10;;;;;;5023930;28;19956;-41
2021/03/30 03:18:41;;;;;;;;;;;26.80;90.20;;;;;;5023836;28;20137;-40
2021/03/30 03:21:33;;;;;;;;;;;26.80;90.00;;;;;;5007183;28;19906;-48
2021/03/30 03:24:20;;;;;;;;;;;26.80;89.90;;;;;;4984628;28;19949;-37
2021/03/30 03:27:06;;;;;;;;;;;26.80;89.80;;;;;;4984654;28;19913;-37
2021/03/30 03:29:46;;;;;;;;;;;26.80;89.60;;;;;;4910656;29;19914;-48
2021/03/30 03:32:21;;;;;;;;;;;26.80;90.00;;;;;;4926490;29;19931;-45
2021/03/30 03:35:23;;;;;;;;;;;26.80;89.70;;;;;;4926979;29;19915;-50
2021/03/30 03:38:13;;;;;;;;;;;26.80;89.40;;;;;;4832332;29;20125;-38
2021/03/30 03:40:39;;;;;;;;;;;26.80;89.40;;;;;;4912287;29;19907;-38
2021/03/30 03:43:34;;;;;;;;;;;26.80;89.10;;;;;;4945839;29;19907;-45
2021/03/30 03:46:14;;;;;;;;;;;26.80;88.80;;;;;;4907667;29;19919;-41
2021/03/30 03:48:59;;;;;;;;;;;26.80;89.20;;;;;;4907941;29;20184;-42
2021/03/30 03:51:46;;;;;;;;;;;26.80;88.50;;;;;;4907565;29;19975;-42
2021/03/30 03:54:14;;;;;;;;;;;26.80;88.70;;;;;;4817158;29;20143;-42
2021/03/30 03:56:51;;;;;;;;;;;26.80;88.10;;;;;;4851721;29;19920;-43
2021/03/30 03:59:20;;;;;;;;;;;26.80;88.30;;;;;;4851406;29;19912;-44
2021/03/30 04:01:49;;;;;;;;;;;26.80;88.10;;;;;;4851773;29;20121;-40
2021/03/30 04:04:23;;;;;;;;;;;26.80;88.00;;;;;;4851450;29;20211;-42
2021/03/30 04:06:51;;;;;;;;;;;26.90;88.20;;;;;;4876517;29;19947;-46
2021/03/30 04:09:21;;;;;;;;;;;26.90;87.80;;;;;;4907716;29;19911;-49
2021/03/30 04:11:59;;;;;;;;;;;26.90;87.70;;;;;;4927224;29;19911;-41
2021/03/30 04:14:27;;;;;;;;;;;26.90;87.40;;;;;;4944204;29;20148;-41
2021/03/30 04:17:02;;;;;;;;;;;26.90;87.10;;;;;;4945040;29;19954;-44
2021/03/30 04:19:28;;;;;;;;;;;26.90;86.60;;;;;;4945689;29;20138;-44
2021/03/30 04:21:56;;;;;;;;;;;26.90;86.60;;;;;;4945391;29;20170;-40
2021/03/30 04:24:43;;;;;;;;;;;26.90;86.10;;;;;;4960328;29;19902;-43
2021/03/30 04:27:13;;;;;;;;;;;26.90;86.30;;;;;;4964481;29;20026;-48
2021/03/30 04:30:11;;;;;;;;;;;26.90;85.90;;;;;;4948709;29;19903;-38
2021/03/30 04:32:37;;;;;;;;;;;26.90;86.00;;;;;;4945449;29;19911;-41
2021/03/30 04:35:04;;;;;;;;;;;26.90;85.80;;;;;;4945378;29;20127;-40
2021/03/30 04:37:33;;;;;;;;;;;27.00;85.60;;;;;;4944913;29;19919;-46
2021/03/30 04:40:03;;;;;;;;;;;26.90;85.20;;;;;;4944352;29;19903;-49
2021/03/30 04:42:40;;;;;;;;;;;27.00;85.70;;;;;;4945121;29;20195;-46
2021/03/30 04:45:12;;;;;;;;;;;27.00;85.30;;;;;;4930188;29;19982;-46
2021/03/30 04:47:48;;;;;;;;;;;27.00;85.60;;;;;;4945149;29;19915;-43
2021/03/30 04:50:25;;;;;;;;;;;27.00;86.00;;;;;;4944516;29;20243;-48
2021/03/30 04:53:01;;;;;;;;;;;27.00;86.20;;;;;;4943478;29;19915;-42
2021/03/30 04:55:30;;;;;;;;;;;27.00;86.00;;;;;;4943099;29;19947;-39
2021/03/30 04:57:58;;;;;;;;;;;27.00;85.80;;;;;;5006092;28;19909;-46
2021/03/30 05:00:31;;;;;;;;;;;27.00;86.00;;;;;;5021973;28;19913;-42
2021/03/30 05:03:17;;;;;;;;;;;27.00;85.90;;;;;;5042738;28;19924;-48
2021/03/30 05:05:43;;;;;;;;;;;27.00;86.10;;;;;;5043989;28;20120;-44
2021/03/30 05:08:09;;;;;;;;;;;27.00;85.30;;;;;;5043979;28;19905;-46
2021/03/30 05:10:57;;;;;;;;;;;27.00;85.40;;;;;;5043864;28;19901;-44
2021/03/30 05:13:43;;;;;;;;;;;26.90;84.90;;;;;;5002851;28;19944;-48
2021/03/30 05:16:09;;;;;;;;;;;27.00;85.10;;;;;;5002612;28;20005;-50
2021/03/30 05:18:57;;;;;;;;;;;27.00;84.70;;;;;;5002721;28;19906;-41
2021/03/30 05:21:27;;;;;;;;;;;27.00;84.70;;;;;;4947951;29;19913;-38
2021/03/30 05:23:53;;;;;;;;;;;26.90;84.00;;;;;;4963818;29;19913;-41
2021/03/30 05:26:21;;;;;;;;;;;27.00;84.00;;;;;;4963978;29;19932;-44
2021/03/30 05:28:47;;;;;;;;;;;27.00;84.20;;;;;;4964050;29;19910;-53
2021/03/30 05:31:32;;;;;;;;;;;27.00;84.20;;;;;;4963839;29;19946;-39
2021/03/30 05:33:58;;;;;;;;;;;26.90;83.90;;;;;;4963601;29;20163;-43
2021/03/30 05:36:26;;;;;;;;;;;27.00;83.70;;;;;;4963598;29;19934;-46
2021/03/30 05:39:01;;;;;;;;;;;27.00;84.20;;;;;;4932095;29;20183;-47
2021/03/30 05:41:37;;;;;;;;;;;27.00;84.10;;;;;;4963934;29;19985;-47
2021/03/30 05:44:04;;;;;;;;;;;27.00;83.80;;;;;;4947419;29;19906;-46
2021/03/30 05:46:31;;;;;;;;;;;27.00;84.00;;;;;;4963017;29;20106;-48
2021/03/30 05:48:58;;;;;;;;;;;27.00;84.50;;;;;;4963048;29;19910;-47
2021/03/30 05:51:27;;;;;;;;;;;26.90;85.20;;;;;;4963621;29;19903;-47
2021/03/30 05:53:59;;;;;;;;;;;26.90;85.90;;;;;;4963404;29;20238;-47
2021/03/30 05:56:33;;;;;;;;;;;26.90;86.40;;;;;;4945658;28;20188;-48
2021/03/30 05:59:11;;;;;;;;;;;26.90;87.10;;;;;;5004219;28;19905;-47
2021/03/30 06:01:58;;;;;;;;;;;26.90;87.60;;;;;;4979260;28;19910;-48
2021/03/30 06:04:31;;;;;;;;;;;26.90;87.80;;;;;;5009577;28;19902;-47
2021/03/30 06:06:58;;;;;;;;;;;26.90;88.00;;;;;;5023484;28;19928;-47
2021/03/30 06:09:24;;;;;;;;;;;26.80;88.30;;;;;;5024376;28;19906;-46
2021/03/30 06:11:59;;;;;;;;;;;26.80;88.40;;;;;;5008433;28;19960;-46
2021/03/30 06:14:39;;;;;;;;;;;26.80;88.50;;;;;;5025117;28;19940;-46
2021/03/30 06:17:28;;;;;;;;;;;26.70;88.10;;;;;;5024918;28;19945;-46
2021/03/30 06:20:00;;;;;;;;;;;26.70;88.10;;;;;;4988964;28;20078;-46
2021/03/30 06:22:49;;;;;;;;;;;26.70;88.50;;;;;;5005018;28;20125;-47
2021/03/30 06:25:35;;;;;;;;;;;26.60;89.30;;;;;;5004929;28;20090;-47
2021/03/30 06:28:15;;;;;;;;;;;26.60;90.10;;;;;;5005153;28;19909;-48
2021/03/30 06:31:17;;;;;;;;;;;26.60;89.50;;;;;;5005146;28;19902;-47
2021/03/30 06:33:46;;;;;;;;;;;26.60;90.00;;;;;;5005050;28;19905;-39
2021/03/30 06:36:15;;;;;;;;;;;26.60;89.60;;;;;;5004923;28;20106;-44
2021/03/30 06:38:47;;;;;;;;;;;26.60;89.40;;;;;;5004857;28;19914;-42
2021/03/30 06:41:25;;;;;;;;;;;26.60;89.50;;;;;;5004960;28;20101;-41
2021/03/30 06:46:44;;;;;;;;;;;26.50;89.40;;;;;;5004945;28;19948;-42
2021/03/30 06:49:15;;;;;;;;;;;26.60;89.40;;;;;;5004686;28;19905;-39
2021/03/30 06:51:41;;;;;;;;;;;26.60;89.70;;;;;;5021694;28;19963;-40
2021/03/30 06:54:08;;;;;;;;;;;26.50;90.00;;;;;;5044361;28;19901;-42
2021/03/30 06:56:54;;;;;;;;;;;26.50;90.00;;;;;;5048084;28;19912;-41
2021/03/30 06:59:21;;;;;;;;;;;26.50;89.70;;;;;;5065870;28;19900;-46
2021/03/30 07:01:50;;;;;;;;;;;26.50;89.60;;;;;;5065587;28;19950;-41
2021/03/30 07:04:17;;;;;;;;;;;26.50;89.40;;;;;;5065764;28;19955;-43
2021/03/30 07:07:10;;;;;;;;;;;26.50;89.20;;;;;;5065946;28;19904;-49
2021/03/30 07:09:57;;;;;;;;;;;26.50;89.00;;;;;;5042245;28;19950;-40
2021/03/30 07:12:35;;;;;;;;;;;26.50;88.70;;;;;;5063203;28;19912;-41
2021/03/30 07:15:22;;;;;;;;;;;26.40;88.60;;;;;;5000441;28;19931;-48
2021/03/30 07:18:11;;;;;;;;;;;26.50;88.40;;;;;;5004080;28;20141;-43
2021/03/30 07:20:58;;;;;;;;;;;26.40;88.50;;;;;;4982736;28;20001;-45
2021/03/30 07:23:38;;;;;;;;;;;26.40;88.40;;;;;;4968728;28;19948;-45
2021/03/30 07:26:10;;;;;;;;;;;26.40;88.30;;;;;;5003943;28;19906;-38
2021/03/30 07:28:45;;;;;;;;;;;26.40;88.20;;;;;;5004283;28;20114;-43
2021/03/30 07:31:17;;;;;;;;;;;26.40;88.20;;;;;;5003884;28;20200;-39
2021/03/30 07:33:43;;;;;;;;;;;26.40;87.90;;;;;;5004778;28;20028;-43
2021/03/30 07:36:11;;;;;;;;;;;26.40;87.70;;;;;;5004647;28;19909;-44
2021/03/30 07:38:44;;;;;;;;;;;26.40;87.50;;;;;;5003807;28;19914;-43
2021/03/30 07:41:10;;;;;;;;;;;26.40;87.70;;;;;;5004071;28;19977;-44
2021/03/30 07:43:37;;;;;;;;;;;26.40;87.40;;;;;;5003906;28;19910;-45
2021/03/30 07:46:04;;;;;;;;;;;26.40;87.30;;;;;;5003602;28;19909;-44
2021/03/30 07:48:32;;;;;;;;;;;26.40;87.40;;;;;;5003928;28;19901;-43
2021/03/30 07:51:07;;;;;;;;;;;26.40;87.40;;;;;;5003888;28;19993;-41
2021/03/30 07:53:48;;;;;;;;;;;26.40;87.30;;;;;;5003811;28;20006;-37
2021/03/30 07:56:26;;;;;;;;;;;26.40;87.30;;;;;;5059114;28;19996;-44
2021/03/30 07:58:53;;;;;;;;;;;26.40;87.20;;;;;;5063138;28;19901;-42
2021/03/30 08:01:21;;;;;;;;;;;26.40;87.40;;;;;;5064457;28;19916;-45
2021/03/30 08:03:48;;;;;;;;;;;26.40;87.50;;;;;;5064466;28;19901;-42
2021/03/30 08:06:17;;;;;;;;;;;26.40;87.60;;;;;;5064773;28;19909;-45
2021/03/30 08:08:51;;;;;;;;;;;26.50;87.50;;;;;;5064555;28;20109;-43
2021/03/30 08:11:42;;;;;;;;;;;26.40;87.20;;;;;;5064484;28;19954;-40
2021/03/30 08:14:12;;;;;;;;;;;26.40;87.20;;;;;;5057240;28;20188;-47
2021/03/30 08:16:39;;;;;;;;;;;26.40;87.30;;;;;;5064548;28;19993;-52
2021/03/30 08:19:06;;;;;;;;;;;26.40;87.30;;;;;;5064423;28;20132;-40
2021/03/30 08:21:55;;;;;;;;;;;26.50;87.30;;;;;;5064624;28;19931;-42
2021/03/30 08:24:25;;;;;;;;;;;26.40;87.00;;;;;;5055645;28;19971;-45
2021/03/30 08:26:51;;;;;;;;;;;26.40;87.00;;;;;;5064352;28;19908;-43
2021/03/30 08:29:24;;;;;;;;;;;26.40;86.90;;;;;;5064256;28;19923;-43
2021/03/30 08:31:51;;;;;;;;;;;26.40;87.00;;;;;;5064461;28;19916;-45
2021/03/30 08:34:26;;;;;;;;;;;26.40;86.90;;;;;;5064345;28;19908;-43
2021/03/30 08:36:56;;;;;;;;;;;26.40;87.10;;;;;;5064030;28;19951;-42
2021/03/30 08:39:25;;;;;;;;;;;26.40;87.10;;;;;;5064084;28;19923;-42
2021/03/30 08:41:52;;;;;;;;;;;26.30;86.80;;;;;;5064279;28;20018;-44
2021/03/30 08:44:21;;;;;;;;;;;26.40;87.00;;;;;;5064005;28;19905;-52
2021/03/30 08:46:49;;;;;;;;;;;26.40;86.80;;;;;;5064062;28;19909;-46
2021/03/30 08:49:24;;;;;;;;;;;26.40;86.70;;;;;;5064198;28;19907;-52
2021/03/30 08:51:51;;;;;;;;;;;26.40;86.60;;;;;;5064143;28;19909;-43
2021/03/30 08:54:19;;;;;;;;;;;26.40;86.70;;;;;;5063804;28;19904;-48
2021/03/30 08:56:46;;;;;;;;;;;26.40;86.60;;;;;;5063947;28;19976;-38
2021/03/30 08:59:14;;;;;;;;;;;26.40;86.50;;;;;;5063878;28;19908;-42
2021/03/30 09:01:42;;;;;;;;;;;26.40;86.60;;;;;;5064031;28;20185;-49
2021/03/30 09:04:10;;;;;;;;;;;26.40;86.60;;;;;;5063944;28;19900;-45
2021/03/30 09:06:41;;;;;;;;;;;26.40;86.30;;;;;;5064197;28;19912;-48
2021/03/30 09:09:21;;;;;;;;;;;26.40;86.30;;;;;;5063619;28;20180;-46
2021/03/30 09:11:47;;;;;;;;;;;26.40;86.60;;;;;;5064022;28;19909;-47
2021/03/30 09:14:16;;;;;;;;;;;26.40;86.50;;;;;;5063616;28;19900;-45
2021/03/30 09:16:44;;;;;;;;;;;26.40;86.60;;;;;;5063782;28;20078;-48
2021/03/30 09:19:20;;;;;;;;;;;26.40;86.80;;;;;;5063754;28;19908;-44
2021/03/30 09:21:48;;;;;;;;;;;26.40;87.00;;;;;;5063827;28;19908;-42
2021/03/30 09:27:03;;;;;;;;;;;26.40;87.20;;;;;;5063919;28;19915;-38
2021/03/30 09:29:37;;;;;;;;;;;26.40;87.40;;;;;;5063493;28;19907;-42
2021/03/30 09:32:05;;;;;;;;;;;26.40;88.10;;;;;;5063560;28;19912;-45
2021/03/30 09:34:31;;;;;;;;;;;26.30;88.10;;;;;;5063687;28;20251;-40
2021/03/30 09:36:58;;;;;;;;;;;26.40;88.20;;;;;;5067407;28;19920;-46
2021/03/30 09:39:25;;;;;;;;;;;26.30;88.30;;;;;;5067463;28;19900;-44
2021/03/30 09:41:53;;;;;;;;;;;26.40;88.50;;;;;;5067425;28;19928;-43
2021/03/30 09:44:20;;;;;;;;;;;26.30;88.30;;;;;;5067248;28;19901;-43
2021/03/30 09:46:47;;;;;;;;;;;26.30;88.50;;;;;;5067464;28;19980;-41
2021/03/30 09:49:14;;;;;;;;;;;26.30;88.50;;;;;;5067085;28;19905;-39
2021/03/30 09:51:43;;;;;;;;;;;26.30;88.50;;;;;;5067411;28;19909;-42
2021/03/30 09:54:23;;;;;;;;;;;26.30;88.50;;;;;;5067062;28;19901;-43
2021/03/30 09:57:00;;;;;;;;;;;26.30;88.40;;;;;;5067318;28;19924;-48
2021/03/30 09:59:26;;;;;;;;;;;26.30;88.50;;;;;;5066992;28;19915;-44
2021/03/30 10:01:53;;;;;;;;;;;26.30;88.60;;;;;;5067303;28;19992;-43
2021/03/30 10:04:21;;;;;;;;;;;26.30;88.60;;;;;;5067302;28;19964;-44
2021/03/30 10:06:47;;;;;;;;;;;26.30;88.60;;;;;;5067153;28;19919;-40
2021/03/30 10:09:13;;;;;;;;;;;26.30;88.50;;;;;;5067037;28;19905;-44
2021/03/30 10:11:39;;;;;;;;;;;26.30;88.60;;;;;;5067227;28;19911;-39
2021/03/30 10:14:35;;;;;;;;;;;26.30;88.60;;;;;;5066630;28;19916;-42
2021/03/30 10:17:01;;;;;;;;;;;26.30;88.60;;;;;;5053923;28;20096;-39
2021/03/30 10:19:27;;;;;;;;;;;26.30;88.40;;;;;;5066587;28;20100;-42
2021/03/30 10:21:55;;;;;;;;;;;26.30;88.50;;;;;;5066742;28;19936;-44
2021/03/30 10:24:22;;;;;;;;;;;26.30;88.50;;;;;;5066706;28;20189;-50
2021/03/30 10:27:04;;;;;;;;;;;26.30;88.40;;;;;;5066614;28;19947;-45
2021/03/30 10:29:31;;;;;;;;;;;26.30;88.40;;;;;;5066322;28;19908;-45
2021/03/30 10:32:04;;;;;;;;;;;26.20;88.10;;;;;;5066821;28;19904;-42
2021/03/30 10:34:32;;;;;;;;;;;26.30;88.20;;;;;;5066290;28;19904;-39
2021/03/30 10:37:00;;;;;;;;;;;26.30;88.20;;;;;;5066058;28;19975;-43
2021/03/30 10:39:38;;;;;;;;;;;26.30;88.50;;;;;;5066081;28;19907;-42
2021/03/30 10:42:08;;;;;;;;;;;26.30;88.40;;;;;;5066485;28;19976;-42
2021/03/30 10:44:36;;;;;;;;;;;26.20;88.40;;;;;;5066073;28;19901;-45
2021/03/30 10:47:16;;;;;;;;;;;26.20;88.80;;;;;;5065613;28;19909;-43
2021/03/30 10:49:43;;;;;;;;;;;26.20;88.90;;;;;;5066314;28;20244;-45
2021/03/30 10:52:43;;;;;;;;;;;26.20;88.80;;;;;;5066283;28;19947;-48
2021/03/30 10:55:05;;;;;;;;;;;26.20;88.70;;;;;;5062881;28;19932;-47
2021/03/30 10:57:34;;;;;;;;;;;26.20;88.50;;;;;;5066183;28;20097;-44
2021/03/30 11:00:00;;;;;;;;;;;26.20;88.70;;;;;;5065791;28;20093;-41
2021/03/30 11:02:27;;;;;;;;;;;26.20;88.70;;;;;;5066143;28;20093;-45
2021/03/30 11:04:53;;;;;;;;;;;26.20;88.70;;;;;;5065644;28;19912;-45
2021/03/30 11:07:19;;;;;;;;;;;26.20;88.90;;;;;;5066306;28;19905;-46
2021/03/30 11:09:45;;;;;;;;;;;26.20;89.10;;;;;;5065681;28;20153;-51
2021/03/30 11:12:12;;;;;;;;;;;26.20;89.30;;;;;;5065837;28;19972;-39
2021/03/30 11:14:38;;;;;;;;;;;26.20;89.80;;;;;;5065695;28;19978;-51
2021/03/30 11:17:04;;;;;;;;;;;26.20;90.00;;;;;;5065464;28;19951;-45
2021/03/30 11:19:31;;;;;;;;;;;26.20;90.30;;;;;;5065445;28;19971;-41
2021/03/30 11:21:57;;;;;;;;;;;26.20;90.40;;;;;;5065806;28;19916;-49
2021/03/30 11:24:25;;;;;;;;;;;26.20;90.50;;;;;;5065607;28;19904;-45
2021/03/30 11:26:54;;;;;;;;;;;26.20;90.60;;;;;;5065445;28;19947;-42
2021/03/30 11:34:29;;;;;;;;;;;26.20;90.90;;;;;;5064882;28;19911;-44
2021/03/30 11:37:09;;;;;;;;;;;26.20;91.20;;;;;;5065289;28;19959;-46
2021/03/30 11:39:36;;;;;;;;;;;26.20;91.10;;;;;;5065126;28;20258;-44
2021/03/30 11:42:02;;;;;;;;;;;26.20;91.30;;;;;;5065591;28;19915;-51
2021/03/30 11:44:29;;;;;;;;;;;26.10;91.30;;;;;;5065158;28;19901;-41
2021/03/30 11:46:55;;;;;;;;;;;26.10;91.50;;;;;;5065143;28;19991;-49
2021/03/30 11:49:21;;;;;;;;;;;26.10;91.60;;;;;;5064944;28;19938;-48
2021/03/30 11:51:47;;;;;;;;;;;26.10;91.70;;;;;;5065308;28;19909;-46
2021/03/30 11:54:13;;;;;;;;;;;26.10;91.70;;;;;;5064669;28;19980;-40
2021/03/30 11:56:39;;;;;;;;;;;26.10;91.70;;;;;;5065240;28;19913;-43
2021/03/30 11:59:06;;;;;;;;;;;26.10;91.80;;;;;;5064903;28;19911;-44
2021/03/30 12:01:32;;;;;;;;;;;26.10;91.80;;;;;;5064731;28;19908;-44
2021/03/30 12:03:58;;;;;;;;;;;26.10;91.90;;;;;;5065096;28;19927;-46
2021/03/30 12:06:24;;;;;;;;;;;26.10;92.00;;;;;;5065107;28;19976;-44
2021/03/30 12:08:50;;;;;;;;;;;26.10;92.00;;;;;;5064932;28;20207;-49
2021/03/30 12:11:16;;;;;;;;;;;26.10;92.10;;;;;;5064947;28;19909;-46
2021/03/30 12:13:42;;;;;;;;;;;26.10;92.10;;;;;;5064895;28;19940;-46
2021/03/30 12:16:09;;;;;;;;;;;26.10;92.20;;;;;;5065008;28;19955;-45
2021/03/30 12:18:35;;;;;;;;;;;26.10;92.20;;;;;;5064520;28;19900;-43
2021/03/30 12:21:01;;;;;;;;;;;26.10;92.30;;;;;;5064804;28;19972;-50
2021/03/30 12:23:28;;;;;;;;;;;26.10;92.50;;;;;;5064687;28;19905;-46
2021/03/30 12:25:54;;;;;;;;;;;26.10;92.60;;;;;;5064454;28;19983;-44
2021/03/30 12:28:20;;;;;;;;;;;26.10;92.70;;;;;;5064475;28;20131;-45
2021/03/30 12:30:47;;;;;;;;;;;26.00;92.70;;;;;;5064613;28;19901;-46
2021/03/30 12:33:14;;;;;;;;;;;26.00;92.70;;;;;;5064459;28;20100;-40
2021/03/30 12:35:40;;;;;;;;;;;25.90;92.90;;;;;;5064454;28;20097;-50
2021/03/30 12:38:08;;;;;;;;;;;25.90;93.00;;;;;;5063028;28;19917;-45
2021/03/30 12:40:34;;;;;;;;;;;25.90;93.10;;;;;;5063048;28;19912;-47
2021/03/30 12:43:00;;;;;;;;;;;26.00;93.10;;;;;;5064303;28;19909;-47
2021/03/30 12:45:27;;;;;;;;;;;25.90;93.20;;;;;;5064306;28;19901;-50
2021/03/30 12:47:53;;;;;;;;;;;25.90;93.20;;;;;;5063371;28;19901;-47
2021/03/30 12:50:23;;;;;;;;;;;25.80;93.30;;;;;;5064493;28;19912;-46
2021/03/30 12:52:50;;;;;;;;;;;25.80;93.50;;;;;;5064909;28;19976;-39
2021/03/30 12:55:16;;;;;;;;;;;25.80;93.40;;;;;;5064074;28;20219;-40
2021/03/30 12:57:42;;;;;;;;;;;25.80;93.40;;;;;;5064729;28;19905;-46
2021/03/30 13:00:08;;;;;;;;;;;25.80;93.40;;;;;;5064142;28;19904;-43
2021/03/30 13:02:35;;;;;;;;;;;25.80;93.60;;;;;;5063907;28;19909;-43
2021/03/30 13:05:01;;;;;;;;;;;25.80;93.80;;;;;;5064200;28;19919;-43
2021/03/30 13:07:27;;;;;;;;;;;25.80;93.90;;;;;;5064357;28;19909;-46
2021/03/30 13:09:53;;;;;;;;;;;25.80;94.10;;;;;;5064714;28;19905;-45
2021/03/30 13:12:19;;;;;;;;;;;25.80;94.20;;;;;;5068467;28;19975;-41
2021/03/30 13:14:46;;;;;;;;;;;25.80;94.30;;;;;;5068205;28;19905;-43
2021/03/30 13:17:12;;;;;;;;;;;25.70;94.10;;;;;;5068453;28;19981;-45
2021/03/30 13:19:38;;;;;;;;;;;25.70;94.40;;;;;;5066851;28;19911;-43
2021/03/30 13:22:05;;;;;;;;;;;25.70;94.50;;;;;;5068409;28;19905;-39
2021/03/30 13:24:40;;;;;;;;;;;25.70;94.70;;;;;;5068136;28;19975;-43
2021/03/30 13:27:10;;;;;;;;;;;25.70;94.60;;;;;;5068341;28;19905;-43
2021/03/30 13:29:39;;;;;;;;;;;25.70;94.50;;;;;;5067934;28;19904;-44
2021/03/30 13:32:07;;;;;;;;;;;25.70;94.60;;;;;;5068218;28;19912;-51
2021/03/30 13:34:33;;;;;;;;;;;25.70;94.80;;;;;;5068069;28;19904;-41
2021/03/30 13:36:59;;;;;;;;;;;25.70;94.80;;;;;;5067633;28;19948;-44
2021/03/30 13:39:25;;;;;;;;;;;25.70;94.70;;;;;;5067598;28;20196;-46
2021/03/30 13:41:55;;;;;;;;;;;25.80;94.70;;;;;;5067671;28;20101;-45
2021/03/30 13:44:25;;;;;;;;;;;25.80;94.70;;;;;;5067563;28;19979;-48
2021/03/30 13:46:52;;;;;;;;;;;25.80;94.70;;;;;;5067336;28;19943;-46
2021/03/30 13:49:18;;;;;;;;;;;25.80;94.80;;;;;;5067449;28;19967;-41
2021/03/30 13:51:45;;;;;;;;;;;25.80;94.70;;;;;;5067933;28;19936;-39
2021/03/30 13:54:12;;;;;;;;;;;25.80;94.70;;;;;;5067483;28;19911;-42
2021/03/30 13:56:39;;;;;;;;;;;25.80;94.70;;;;;;5067674;28;19950;-37
2021/03/30 13:59:05;;;;;;;;;;;25.80;94.80;;;;;;5067227;28;20011;-46
2021/03/30 14:01:31;;;;;;;;;;;25.80;94.90;;;;;;5067328;28;19904;-45
2021/03/30 14:03:57;;;;;;;;;;;25.80;94.90;;;;;;5067319;28;19975;-47
2021/03/30 14:06:24;;;;;;;;;;;25.80;95.00;;;;;;5067504;28;19991;-41
2021/03/30 14:08:50;;;;;;;;;;;25.80;95.00;;;;;;5067082;28;20211;-41
2021/03/30 14:11:18;;;;;;;;;;;25.80;94.80;;;;;;5066940;28;19980;-40
2021/03/30 14:13:49;;;;;;;;;;;25.80;95.00;;;;;;5067039;28;19904;-44
2021/03/30 14:16:17;;;;;;;;;;;25.80;95.10;;;;;;5066888;28;20183;-46
2021/03/30 14:18:57;;;;;;;;;;;25.80;95.10;;;;;;5066943;28;19904;-42
2021/03/30 14:21:38;;;;;;;;;;;25.80;95.20;;;;;;5066473;28;19904;-44
2021/03/30 14:24:08;;;;;;;;;;;25.80;95.20;;;;;;5067599;28;19905;-46
2021/03/30 14:26:34;;;;;;;;;;;25.80;95.20;;;;;;5067634;28;19905;-50
2021/03/30 14:29:00;;;;;;;;;;;25.80;95.20;;;;;;5066720;28;19963;-44
2021/03/30 14:31:27;;;;;;;;;;;25.70;95.40;;;;;;5066693;28;19908;-45
2021/03/30 14:33:53;;;;;;;;;;;25.80;95.30;;;;;;5066582;28;19905;-41
2021/03/30 14:36:20;;;;;;;;;;;25.80;95.30;;;;;;5066518;28;19951;-45
2021/03/30 14:38:49;;;;;;;;;;;25.80;95.20;;;;;;5066387;28;19918;-42
2021/03/30 14:41:25;;;;;;;;;;;25.80;95.30;;;;;;5066733;28;19980;-49
2021/03/30 14:44:30;;;;;;;;;;;25.80;95.30;;;;;;5065681;28;20161;-45
2021/03/30 14:52:08;;;;;;;;;;;25.80;95.20;;;;;;5066977;28;20132;-41
2021/03/30 14:54:40;;;;;;;;;;;25.80;95.10;;;;;;5066042;28;20128;-44
2021/03/30 14:57:15;;;;;;;;;;;25.80;95.10;;;;;;5066494;28;19919;-47
2021/03/30 15:00:04;;;;;;;;;;;25.80;95.20;;;;;;5065149;28;20244;-39
2021/03/30 15:05:00;;;;;;;;;;;25.80;95.20;;;;;;5066293;28;20074;-39
2021/03/30 15:07:26;;;;;;;;;;;25.80;95.30;;;;;;5066484;28;19979;-47
2021/03/30 15:09:52;;;;;;;;;;;25.80;95.30;;;;;;5065608;28;19901;-44